Time;durP1;ratioP1;P1;durP2;ratioP2;P2;SDS_P1;SDS_P2;PMS_P1;PMS_P2;Temp;Humidity;BMP_temperature;BMP_pressure;BME280_temperature;BME280_humidity;BME280_pressure;Samples;Min_cycle;Max_cycle;Signal;HPM_P1;HPM_P2
2021/04/08 00:02:45;;;;;;;14.70;7.60;;;;;;;-1.39;77.02;98323.33;238906;1199;23129;-70
2021/04/08 00:07:48;;;;;;;15.80;7.20;;;;;;;-1.41;77.15;98320.93;238607;1200;23104;-70
2021/04/08 00:12:51;;;;;;;17.60;7.45;;;;;;;-1.43;77.21;98315.11;238143;1200;23275;-71
2021/04/08 00:17:53;;;;;;;14.70;8.53;;;;;;;-1.44;77.21;98318.75;238752;1199;23151;-71
2021/04/08 00:22:56;;;;;;;12.20;6.35;;;;;;;-1.46;77.52;98322.63;238920;1199;23157;-72
2021/04/08 00:27:59;;;;;;;16.73;7.60;;;;;;;-1.47;77.09;98323.63;238042;1200;23124;-71
2021/04/08 00:33:02;;;;;;;15.30;6.95;;;;;;;-1.49;76.78;98323.86;238283;1200;23277;-71
2021/04/08 00:38:04;;;;;;;12.80;6.40;;;;;;;-1.53;77.02;98319.27;238692;1200;23136;-72
2021/04/08 00:43:07;;;;;;;13.17;6.20;;;;;;;-1.56;77.00;98323.93;238335;1201;23131;-72
2021/04/08 00:48:10;;;;;;;12.27;6.23;;;;;;;-1.56;77.02;98316.05;238163;1200;23204;-71
2021/04/08 00:53:18;;;;;;;13.70;5.60;;;;;;;-1.58;77.03;98322.55;238875;1202;26022;-72
2021/04/08 00:58:22;;;;;;;12.85;6.50;;;;;;;-1.58;77.28;98325.17;238202;1200;23149;-70
2021/04/08 01:03:25;;;;;;;16.70;8.70;;;;;;;-1.58;76.93;98325.17;238233;1200;23141;-71
2021/04/08 01:08:28;;;;;;;17.05;8.05;;;;;;;-1.57;76.83;98329.41;238323;1203;24747;-70
2021/04/08 01:13:32;;;;;;;15.55;8.25;;;;;;;-1.53;77.13;98337.66;238286;1200;23141;-71
2021/04/08 01:19:20;;;;;;;14.00;7.67;;;;;;;-1.46;77.08;98328.66;238176;1200;23161;-71
2021/04/08 01:24:44;;;;;;;13.80;7.15;;;;;;;-1.33;77.10;98326.91;238440;1203;23153;-71
2021/04/08 01:30:11;;;;;;;13.85;7.15;;;;;;;-1.23;77.18;98335.87;239061;1200;23156;-70
2021/04/08 01:35:16;;;;;;;9.50;5.45;;;;;;;-1.13;76.85;98342.44;238749;1202;23137;-70
2021/04/08 01:40:21;;;;;;;9.60;5.20;;;;;;;-1.05;76.76;98347.36;238797;1199;23136;-71
2021/04/08 01:45:24;;;;;;;11.80;5.60;;;;;;;-1.01;76.55;98343.25;238745;1202;23119;-70
2021/04/08 01:50:29;;;;;;;10.37;5.33;;;;;;;-0.99;76.18;98345.66;238728;1203;23161;-71
2021/04/08 01:55:36;;;;;;;8.40;4.80;;;;;;;-0.95;76.19;98352.90;239023;1200;23826;-69
2021/04/08 02:00:39;;;;;;;7.95;5.10;;;;;;;-0.92;76.42;98360.33;238525;1200;23256;-70
2021/04/08 02:05:43;;;;;;;9.10;5.80;;;;;;;-0.85;76.39;98360.25;238534;1199;23140;-71
2021/04/08 02:10:46;;;;;;;9.40;5.30;;;;;;;-0.77;76.42;98365.20;239152;1200;23144;-71
2021/04/08 02:15:49;;;;;;;8.90;4.90;;;;;;;-0.64;76.43;98368.63;238501;1200;23115;-70
2021/04/08 02:20:53;;;;;;;8.60;4.55;;;;;;;-0.56;76.00;98365.68;238868;1203;23144;-72
2021/04/08 02:25:57;;;;;;;9.10;4.93;;;;;;;-0.48;75.95;98367.98;239386;1202;23125;-70
2021/04/08 02:31:02;;;;;;;7.20;4.17;;;;;;;-0.41;75.93;98367.89;239519;1199;25975;-70
2021/04/08 02:36:04;;;;;;;6.27;3.90;;;;;;;-0.35;76.02;98370.42;239168;1202;23130;-71
2021/04/08 02:41:09;;;;;;;8.75;5.10;;;;;;;-0.33;76.56;98377.30;239148;1200;23128;-71
2021/04/08 02:46:12;;;;;;;7.80;4.40;;;;;;;-0.44;77.53;98377.04;238894;1200;23128;-70
2021/04/08 02:51:20;;;;;;;8.60;4.40;;;;;;;-0.54;78.51;98389.95;239128;1198;23159;-70
2021/04/08 02:56:45;;;;;;;9.40;5.30;;;;;;;-0.64;78.91;98394.94;239181;1200;23328;-71
2021/04/08 03:01:58;;;;;;;10.20;5.60;;;;;;;-0.71;79.04;98380.06;238869;1199;24312;-71
2021/04/08 03:07:03;;;;;;;8.75;4.70;;;;;;;-0.71;79.35;98384.54;238723;1200;23123;-71
2021/04/08 03:12:09;;;;;;;10.80;6.80;;;;;;;-0.73;80.40;98384.77;238290;1202;23121;-71
2021/04/08 03:17:14;;;;;;;10.00;5.75;;;;;;;-0.74;80.52;98395.48;239103;1199;26006;-72
2021/04/08 03:22:20;;;;;;;8.73;5.17;;;;;;;-0.75;81.04;98389.43;239040;1200;23134;-71
2021/04/08 03:27:26;;;;;;;10.33;5.70;;;;;;;-0.76;81.52;98392.28;239410;1199;23118;-70
2021/04/08 03:32:29;;;;;;;9.25;5.40;;;;;;;-0.77;81.84;98395.94;239408;1199;23124;-70
2021/04/08 03:37:32;;;;;;;15.10;9.10;;;;;;;-0.74;82.18;98400.74;238890;1200;23141;-71
2021/04/08 03:42:35;;;;;;;13.65;9.00;;;;;;;-0.71;82.74;98408.21;239154;1199;24732;-71
2021/04/08 03:47:41;;;;;;;9.03;5.63;;;;;;;-0.67;84.15;98416.44;239034;1200;23128;-71
2021/04/08 03:52:45;;;;;;;7.55;4.90;;;;;;;-0.67;86.27;98411.18;238688;1200;23128;-71
2021/04/08 03:57:49;;;;;;;11.00;5.90;;;;;;;-0.67;85.73;98412.00;238677;1200;23117;-70
2021/04/08 04:02:53;;;;;;;9.33;5.53;;;;;;;-0.66;86.07;98416.22;238756;1200;23300;-72
2021/04/08 04:07:56;;;;;;;9.80;6.60;;;;;;;-0.63;85.96;98418.42;238852;1202;23168;-72
2021/04/08 04:13:00;;;;;;;10.80;6.45;;;;;;;-0.60;85.00;98403.98;238803;1202;23128;-72
2021/04/08 04:18:08;;;;;;;10.80;6.90;;;;;;;-0.55;84.70;98427.81;238916;1199;23144;-71
2021/04/08 04:23:12;;;;;;;11.30;6.30;;;;;;;-0.50;84.14;98429.77;238668;1199;23139;-72
2021/04/08 04:28:15;;;;;;;9.90;5.50;;;;;;;-0.39;83.97;98427.17;238767;1198;26936;-73
2021/04/08 04:33:17;;;;;;;10.00;6.40;;;;;;;-0.33;83.88;98429.95;238674;1200;23118;-71
2021/04/08 04:38:20;;;;;;;8.10;5.60;;;;;;;-0.20;83.62;98437.63;238731;1199;23138;-72
2021/04/08 04:43:23;;;;;;;10.70;7.20;;;;;;;-0.13;83.20;98448.06;238815;1200;23129;-73
2021/04/08 04:48:26;;;;;;;7.60;5.60;;;;;;;-0.09;83.13;98452.64;238766;1200;23162;-71
2021/04/08 04:53:29;;;;;;;8.23;5.77;;;;;;;-0.09;83.13;98462.38;238722;1200;23152;-71
2021/04/08 04:58:32;;;;;;;10.05;6.30;;;;;;;-0.03;82.74;98466.73;238697;1200;23224;-71
2021/04/08 05:03:34;;;;;;;9.77;6.47;;;;;;;0.06;82.67;98481.19;238745;1200;23124;-70
2021/04/08 05:08:37;;;;;;;9.70;6.30;;;;;;;0.15;82.82;98471.93;238659;1200;23128;-72
2021/04/08 05:13:40;;;;;;;9.23;6.57;;;;;;;0.25;82.34;98483.72;238632;1199;23129;-70
2021/04/08 05:18:43;;;;;;;10.80;6.60;;;;;;;0.44;82.29;98487.86;238672;1200;26156;-70
2021/04/08 05:23:46;;;;;;;10.60;6.50;;;;;;;0.61;82.24;98497.72;238591;1200;23128;-71
2021/04/08 05:28:49;;;;;;;9.70;6.70;;;;;;;0.72;81.64;98511.94;238725;1199;23134;-71
2021/04/08 05:33:51;;;;;;;9.80;6.80;;;;;;;0.81;80.93;98526.35;238789;1199;23144;-71
2021/04/08 05:38:54;;;;;;;9.25;6.20;;;;;;;0.88;81.27;98528.88;238939;1200;23393;-70
2021/04/08 05:43:57;;;;;;;9.93;6.33;;;;;;;1.03;80.68;98539.75;239152;1200;23128;-71
2021/04/08 05:49:00;;;;;;;8.80;5.40;;;;;;;1.23;80.49;98542.00;239072;1199;23272;-70
2021/04/08 05:54:03;;;;;;;8.97;5.83;;;;;;;1.50;80.58;98546.78;238256;1202;23153;-71
2021/04/08 05:59:06;;;;;;;10.45;6.40;;;;;;;1.70;79.05;98554.28;239049;1200;23145;-71
2021/04/08 06:04:08;;;;;;;9.05;5.00;;;;;;;2.02;79.62;98554.59;239666;1200;23141;-72
2021/04/08 06:09:11;;;;;;;6.40;3.90;;;;;;;2.39;78.91;98561.28;239657;1200;23564;-71
2021/04/08 06:14:14;;;;;;;6.30;3.70;;;;;;;2.70;78.29;98572.33;239156;1200;23121;-71
2021/04/08 06:19:17;;;;;;;6.27;3.40;;;;;;;2.83;77.54;98579.16;239610;1200;23108;-71
2021/04/08 06:24:20;;;;;;;6.10;3.90;;;;;;;3.02;77.55;98590.27;239664;1200;23228;-70
2021/04/08 06:29:23;;;;;;;6.10;4.00;;;;;;;3.19;77.03;98596.34;239463;1200;23144;-71
2021/04/08 06:34:26;;;;;;;5.50;3.25;;;;;;;3.35;76.05;98599.98;239231;1200;23346;-71
2021/04/08 06:39:29;;;;;;;6.00;3.40;;;;;;;3.55;76.13;98611.88;239336;1200;23188;-70
2021/04/08 06:44:35;;;;;;;4.90;3.37;;;;;;;3.68;74.95;98616.83;239717;1199;23126;-70
2021/04/08 06:49:43;;;;;;;4.70;2.87;;;;;;;3.92;75.20;98635.13;239441;1199;23189;-71
2021/04/08 06:54:47;;;;;;;5.15;3.05;;;;;;;3.91;72.81;98636.16;237862;1200;23125;-72
2021/04/08 06:59:50;;;;;;;6.80;3.10;;;;;;;3.80;72.85;98645.83;239209;1199;23138;-71
2021/04/08 07:04:54;;;;;;;8.40;3.60;;;;;;;3.80;72.89;98653.78;239227;1202;23128;-71
2021/04/08 07:09:57;;;;;;;5.40;3.40;;;;;;;3.69;72.46;98657.36;239168;1200;26143;-71
2021/04/08 07:15:00;;;;;;;5.75;3.45;;;;;;;3.68;72.13;98661.05;239143;1199;23285;-70
2021/04/08 07:20:04;;;;;;;7.23;3.40;;;;;;;3.65;72.00;98674.79;239246;1200;26005;-71
2021/04/08 07:25:19;;;;;;;7.50;3.70;;;;;;;3.61;71.43;98677.14;239091;1200;26345;-75
2021/04/08 07:30:26;;;;;;;6.90;4.00;;;;;;;3.71;72.32;98690.52;239086;1199;23147;-71
2021/04/08 07:35:43;;;;;;;5.80;3.40;;;;;;;3.80;71.42;98698.04;239157;1200;23167;-71
2021/04/08 07:40:58;;;;;;;6.07;3.83;;;;;;;3.91;71.27;98718.32;239064;1200;23114;-73
2021/04/08 07:46:35;;;;;;;6.00;3.80;;;;;;;3.96;71.44;98710.45;239431;1200;27337;-72
2021/04/08 07:51:38;;;;;;;6.95;3.50;;;;;;;3.84;71.52;98726.45;239321;1200;26571;-72
2021/04/08 07:56:42;;;;;;;4.90;3.50;;;;;;;3.65;70.54;98741.84;238965;1200;23122;-72
2021/04/08 08:01:47;;;;;;;7.20;3.30;;;;;;;3.46;71.12;98749.23;238895;1200;23128;-72
2021/04/08 08:06:50;;;;;;;7.30;3.10;;;;;;;3.38;70.99;98746.98;239421;1199;23135;-70
2021/04/08 08:11:55;;;;;;;6.80;3.90;;;;;;;3.31;71.02;98757.73;239274;1200;23128;-71
2021/04/08 08:17:07;;;;;;;8.03;3.83;;;;;;;3.34;70.87;98761.75;238909;1199;25968;-71
2021/04/08 08:22:21;;;;;;;6.53;3.10;;;;;;;3.25;71.10;98772.73;239326;1199;23132;-70
2021/04/08 08:27:41;;;;;;;6.00;3.35;;;;;;;3.23;71.00;98777.48;239161;1198;23263;-71
2021/04/08 08:33:04;;;;;;;5.05;3.10;;;;;;;3.41;70.64;98781.75;237982;1200;23167;-72
2021/04/08 08:38:11;;;;;;;7.10;3.50;;;;;;;3.76;69.72;98801.05;239702;1200;27421;-71
2021/04/08 08:43:15;;;;;;;7.10;3.50;;;;;;;4.01;69.40;98776.75;239342;1198;23151;-71
2021/04/08 08:48:19;;;;;;;5.15;2.70;;;;;;;4.32;68.38;98797.56;240343;1199;23127;-71
2021/04/08 08:53:21;;;;;;;5.57;3.00;;;;;;;4.53;68.53;98802.05;239264;1199;23356;-71
2021/04/08 08:58:25;;;;;;;6.20;3.23;;;;;;;4.77;68.51;98802.61;238914;1200;23285;-70
2021/04/08 09:03:28;;;;;;;5.30;3.15;;;;;;;4.87;67.25;98804.56;239275;1200;23107;-71
2021/04/08 09:08:35;;;;;;;5.33;2.60;;;;;;;5.06;66.71;98812.17;238911;1199;23128;-71
2021/04/08 09:13:37;;;;;;;6.40;2.43;;;;;;;4.97;64.11;98798.56;238889;1199;23138;-72
2021/04/08 09:18:40;;;;;;;4.85;2.60;;;;;;;4.79;64.38;98812.97;239028;1198;25991;-72
2021/04/08 09:23:43;;;;;;;3.40;1.95;;;;;;;4.75;64.30;98825.13;239213;1200;23148;-73
2021/04/08 09:28:46;;;;;;;3.55;1.90;;;;;;;4.00;67.30;98899.76;239167;1200;23126;-72
2021/04/08 09:33:49;;;;;;;2.90;1.50;;;;;;;2.72;69.36;98869.19;239540;1200;23169;-71
2021/04/08 09:38:55;;;;;;;2.95;2.00;;;;;;;1.97;71.33;98883.97;239585;1200;23736;-72
2021/04/08 09:43:58;;;;;;;4.70;2.70;;;;;;;1.70;72.05;98887.05;239074;1200;23134;-71
2021/04/08 09:49:00;;;;;;;6.75;3.20;;;;;;;1.77;72.31;98897.51;239261;1200;23125;-72
2021/04/08 09:54:06;;;;;;;3.85;2.80;;;;;;;2.12;72.51;98894.89;239715;1202;23177;-71
2021/04/08 09:59:11;;;;;;;4.60;2.60;;;;;;;2.52;72.73;98894.17;239888;1199;23138;-71
2021/04/08 10:04:17;;;;;;;6.70;3.10;;;;;;;2.91;72.15;98889.14;240047;1200;23249;-72
2021/04/08 10:09:20;;;;;;;5.80;2.90;;;;;;;3.18;72.63;98893.88;239424;1199;23148;-73
2021/04/08 10:14:28;;;;;;;5.00;2.60;;;;;;;3.51;72.27;98895.00;239012;1199;23131;-71
2021/04/08 10:19:37;;;;;;;3.60;2.20;;;;;;;3.76;72.97;98915.00;239321;1200;23233;-72
2021/04/08 10:24:43;;;;;;;3.50;2.20;;;;;;;3.93;72.20;98910.52;238983;1200;23085;-71
2021/04/08 10:29:47;;;;;;;2.80;1.97;;;;;;;4.19;72.07;98912.75;238952;1199;23131;-71
2021/04/08 10:34:50;;;;;;;3.00;2.30;;;;;;;4.31;71.96;98902.86;238923;1199;23092;-71
2021/04/08 10:39:53;;;;;;;4.53;2.70;;;;;;;4.45;71.94;98909.41;238970;1202;23118;-70
2021/04/08 10:44:58;;;;;;;3.40;2.10;;;;;;;4.80;71.84;98918.89;238977;1200;23244;-70
2021/04/08 10:50:02;;;;;;;3.83;2.73;;;;;;;5.06;71.74;98918.39;238879;1199;23125;-71
2021/04/08 10:55:09;;;;;;;3.67;2.53;;;;;;;4.97;70.56;98918.81;238905;1199;23157;-70
2021/04/08 11:00:14;;;;;;;4.63;2.37;;;;;;;4.93;71.44;98920.36;239060;1200;24600;-70
2021/04/08 11:05:26;;;;;;;7.00;2.83;;;;;;;5.13;71.85;98913.68;238791;1200;26481;-70
2021/04/08 11:10:31;;;;;;;4.30;3.00;;;;;;;5.56;71.84;98925.28;238285;1202;23148;-71
2021/04/08 11:15:36;;;;;;;5.55;3.50;;;;;;;5.84;70.49;98923.41;239122;1199;23105;-70
2021/04/08 11:20:44;;;;;;;4.20;3.03;;;;;;;6.17;69.10;98937.53;238137;1199;23253;-68
2021/04/08 11:26:04;;;;;;;5.60;3.60;;;;;;;5.94;69.02;98938.64;238124;1200;23120;-69
2021/04/08 11:31:18;;;;;;;5.13;3.67;;;;;;;5.29;67.53;98938.57;238795;1200;24770;-70
2021/04/08 11:36:22;;;;;;;5.33;2.87;;;;;;;4.78;68.66;98939.58;238318;1200;23148;-70
2021/04/08 11:41:28;;;;;;;4.70;2.40;;;;;;;4.36;68.50;98963.13;238623;1202;24853;-70
2021/04/08 11:46:35;;;;;;;3.00;2.00;;;;;;;3.84;69.61;98998.61;237867;1200;23201;-71
2021/04/08 11:51:38;;;;;;;2.05;1.50;;;;;;;3.05;69.61;98979.66;238976;1202;23240;-70
2021/04/08 11:56:42;;;;;;;4.60;2.30;;;;;;;2.71;71.17;98978.67;238883;1200;23263;-70
2021/04/08 12:01:51;;;;;;;5.85;2.65;;;;;;;2.81;71.70;98991.31;238463;1200;23138;-69
2021/04/08 12:07:04;;;;;;;6.43;2.83;;;;;;;3.08;72.77;98987.13;238129;1200;23141;-69
2021/04/08 12:12:30;;;;;;;5.35;2.10;;;;;;;3.35;72.69;98997.19;237740;1200;23115;-70
2021/04/08 12:17:33;;;;;;;3.05;2.30;;;;;;;3.49;73.49;98995.06;239308;1200;23343;-71
2021/04/08 12:22:36;;;;;;;7.83;2.33;;;;;;;3.81;73.96;98988.50;239098;1198;23315;-71
2021/04/08 12:27:40;;;;;;;3.20;2.30;;;;;;;4.55;74.98;98983.03;239100;1202;23121;-71
2021/04/08 12:32:43;;;;;;;4.20;2.55;;;;;;;5.10;72.82;98988.54;239382;1202;23178;-71
2021/04/08 12:37:46;;;;;;;4.00;2.30;;;;;;;5.01;71.59;98996.14;238722;1200;23125;-69
2021/04/08 12:42:48;;;;;;;5.23;2.67;;;;;;;4.76;71.32;98992.09;238714;1199;23114;-71
2021/04/08 12:47:51;;;;;;;4.13;3.07;;;;;;;4.56;71.62;99003.23;239029;1202;23133;-72
2021/04/08 12:52:54;;;;;;;6.07;3.00;;;;;;;4.34;71.69;98997.84;239109;1202;23263;-72
2021/04/08 12:57:57;;;;;;;5.15;3.00;;;;;;;4.28;71.86;99010.23;239101;1200;24722;-71
2021/04/08 13:03:00;;;;;;;4.63;3.47;;;;;;;4.34;71.89;99000.50;238890;1200;23125;-71
2021/04/08 13:08:04;;;;;;;7.10;2.80;;;;;;;4.47;70.84;99009.98;238992;1200;23138;-71
2021/04/08 13:13:08;;;;;;;4.27;2.43;;;;;;;4.76;70.14;99001.91;239022;1199;23148;-70
2021/04/08 13:18:11;;;;;;;6.50;3.20;;;;;;;5.17;69.67;99001.64;239010;1200;23288;-69
2021/04/08 13:23:14;;;;;;;3.97;2.80;;;;;;;5.47;67.34;98993.20;238706;1199;23128;-72
2021/04/08 13:28:16;;;;;;;6.05;3.15;;;;;;;5.24;67.01;99020.84;239037;1200;23146;-72
2021/04/08 13:33:19;;;;;;;3.40;2.43;;;;;;;4.72;63.11;99016.71;238827;1200;23118;-71
2021/04/08 13:38:21;;;;;;;4.83;2.50;;;;;;;4.42;63.80;99052.33;238837;1199;23295;-71
2021/04/08 13:43:24;;;;;;;4.00;2.60;;;;;;;4.34;65.58;99020.89;239033;1200;23141;-72
2021/04/08 13:48:27;;;;;;;3.67;2.17;;;;;;;4.52;64.25;99073.73;238943;1200;23125;-74
2021/04/08 13:53:31;;;;;;;4.10;2.10;;;;;;;4.31;64.83;99067.30;239084;1200;23134;-71
2021/04/08 13:58:34;;;;;;;3.20;2.00;;;;;;;4.07;65.72;99070.07;239446;1199;23114;-72
2021/04/08 14:03:37;;;;;;;4.25;2.10;;;;;;;4.05;66.51;99089.91;239454;1199;23139;-71
2021/04/08 14:08:41;;;;;;;5.23;2.37;;;;;;;4.36;66.82;99063.91;239480;1200;23136;-72
2021/04/08 14:13:43;;;;;;;3.27;2.03;;;;;;;4.80;65.23;99094.07;239141;1199;23134;-70
2021/04/08 14:18:46;;;;;;;5.00;3.00;;;;;;;4.91;63.30;99097.69;239133;1200;26439;-72
2021/04/08 14:23:51;;;;;;;5.77;3.00;;;;;;;4.85;64.75;99100.50;238428;1200;23147;-70
2021/04/08 14:28:56;;;;;;;4.90;2.75;;;;;;;4.80;63.84;99117.95;239037;1198;23243;-71
2021/04/08 14:33:59;;;;;;;5.20;2.70;;;;;;;4.81;63.38;99113.44;238824;1199;24776;-71
2021/04/08 14:39:03;;;;;;;4.85;2.75;;;;;;;4.87;64.65;99103.70;238956;1200;23125;-71
2021/04/08 14:44:06;;;;;;;5.55;3.00;;;;;;;5.05;63.53;99122.06;239186;1200;23172;-70
2021/04/08 14:49:09;;;;;;;5.55;2.85;;;;;;;5.23;62.16;99107.70;238907;1200;23141;-71
2021/04/08 14:54:11;;;;;;;3.25;2.50;;;;;;;5.36;60.92;99119.00;238938;1199;23135;-70
2021/04/08 14:59:14;;;;;;;5.77;2.77;;;;;;;5.36;61.33;99119.00;238911;1200;23236;-70
2021/04/08 15:04:17;;;;;;;7.67;3.10;;;;;;;5.36;61.26;99124.32;238940;1200;23148;-71
2021/04/08 15:09:20;;;;;;;5.70;2.90;;;;;;;5.42;60.83;99126.02;238984;1200;23275;-71
2021/04/08 15:14:22;;;;;;;3.20;2.90;;;;;;;5.37;60.96;99126.73;239012;1199;23138;-70
2021/04/08 15:19:25;;;;;;;4.65;3.05;;;;;;;5.39;61.10;99139.80;238914;1200;23327;-71
2021/04/08 15:24:28;;;;;;;7.50;3.30;;;;;;;5.50;62.03;99136.22;239088;1200;23245;-71
2021/04/08 15:29:31;;;;;;;7.50;3.20;;;;;;;5.57;61.57;99131.52;239072;1199;23128;-71
2021/04/08 15:34:34;;;;;;;5.90;3.10;;;;;;;5.60;61.47;99139.00;238947;1200;23115;-71
2021/04/08 15:39:38;;;;;;;4.05;2.80;;;;;;;5.68;59.89;99143.09;238956;1200;23124;-69
2021/04/08 15:44:40;;;;;;;6.60;3.25;;;;;;;5.60;59.81;99140.86;238479;1202;23130;-72
2021/04/08 15:49:43;;;;;;;8.70;3.30;;;;;;;5.39;60.63;99140.59;239056;1200;23148;-71
2021/04/08 15:54:46;;;;;;;6.27;3.47;;;;;;;5.17;60.68;99159.13;239138;1200;23131;-71
2021/04/08 15:59:49;;;;;;;5.60;3.40;;;;;;;5.00;60.98;99156.48;238761;1202;23266;-70
2021/04/08 16:04:52;;;;;;;7.30;3.75;;;;;;;4.86;61.04;99169.28;238702;1200;23146;-71
2021/04/08 16:09:54;;;;;;;8.40;3.50;;;;;;;4.71;62.03;99187.61;238954;1199;23254;-73
2021/04/08 16:14:57;;;;;;;10.85;4.20;;;;;;;4.59;62.34;99190.34;239075;1198;23141;-71
2021/04/08 16:20:01;;;;;;;8.05;4.20;;;;;;;4.63;63.76;99189.61;239158;1200;23129;-71
2021/04/08 16:25:08;;;;;;;7.70;3.55;;;;;;;4.69;63.70;99197.67;238957;1198;23118;-70
2021/04/08 16:30:12;;;;;;;8.30;3.75;;;;;;;4.69;64.03;99202.98;238602;1199;23121;-71
2021/04/08 16:35:15;;;;;;;9.10;4.40;;;;;;;4.67;63.96;99205.84;239202;1202;23101;-74
2021/04/08 16:40:18;;;;;;;7.33;4.20;;;;;;;4.62;63.69;99214.53;239452;1202;23256;-74
2021/04/08 16:45:21;;;;;;;7.53;4.20;;;;;;;4.56;63.80;99218.14;239274;1199;23172;-74
2021/04/08 16:50:25;;;;;;;8.67;4.80;;;;;;;4.50;63.68;99219.08;239346;1199;23139;-73
2021/04/08 16:55:29;;;;;;;7.37;3.90;;;;;;;4.47;63.88;99235.47;239049;1199;23293;-74
2021/04/08 17:00:33;;;;;;;5.75;3.45;;;;;;;4.41;63.33;99225.82;239300;1199;23154;-74
2021/04/08 17:05:36;;;;;;;9.30;4.10;;;;;;;4.34;63.24;99231.27;239238;1200;27354;-75
2021/04/08 17:10:39;;;;;;;10.70;5.90;;;;;;;4.20;63.25;99236.03;239221;1199;23166;-74
2021/04/08 17:15:42;;;;;;;7.00;3.60;;;;;;;4.07;63.48;99236.28;239536;1199;23081;-75
2021/04/08 17:20:45;;;;;;;9.10;4.70;;;;;;;4.00;64.10;99246.20;239433;1199;23186;-73
2021/04/08 17:25:48;;;;;;;13.03;4.93;;;;;;;3.93;64.00;99255.10;239107;1199;23185;-74
2021/04/08 17:30:50;;;;;;;8.20;4.93;;;;;;;3.83;64.13;99257.52;239350;1199;23115;-75
2021/04/08 17:35:53;;;;;;;9.73;4.70;;;;;;;3.71;64.05;99264.69;239210;1199;23122;-75
2021/04/08 17:40:56;;;;;;;6.90;3.80;;;;;;;3.63;64.33;99265.03;239170;1200;23116;-74
2021/04/08 17:45:58;;;;;;;10.13;4.77;;;;;;;3.56;64.30;99279.19;239245;1199;23279;-75
2021/04/08 17:51:01;;;;;;;14.67;7.20;;;;;;;3.51;64.35;99287.03;239225;1199;23139;-74
2021/04/08 17:56:04;;;;;;;17.00;7.80;;;;;;;3.46;64.82;99294.85;239341;1199;23321;-75
2021/04/08 18:01:06;;;;;;;14.65;8.15;;;;;;;3.37;64.72;99304.16;239409;1200;23336;-74
2021/04/08 18:06:09;;;;;;;11.20;6.70;;;;;;;3.31;64.79;99313.02;239170;1200;23244;-75
2021/04/08 18:11:12;;;;;;;15.10;7.20;;;;;;;3.25;65.12;99317.38;239491;1199;26223;-75
2021/04/08 18:16:14;;;;;;;11.55;5.80;;;;;;;3.18;65.32;99329.92;239324;1199;23141;-74
2021/04/08 18:21:18;;;;;;;11.27;6.23;;;;;;;3.14;65.21;99326.90;239330;1200;23126;-74
2021/04/08 18:26:20;;;;;;;8.40;4.93;;;;;;;3.10;65.44;99338.97;239476;1200;23139;-74
2021/04/08 18:31:23;;;;;;;11.40;5.33;;;;;;;3.07;65.89;99342.08;239468;1200;23144;-74
2021/04/08 18:36:26;;;;;;;9.10;5.60;;;;;;;3.02;65.52;99337.47;239319;1200;23117;-74
2021/04/08 18:41:30;;;;;;;11.77;6.40;;;;;;;3.01;65.41;99353.58;239397;1202;23122;-75
2021/04/08 18:46:33;;;;;;;13.00;7.05;;;;;;;2.99;66.11;99358.27;239290;1200;23151;-75
2021/04/08 18:51:36;;;;;;;12.95;6.50;;;;;;;2.94;65.51;99351.01;239155;1199;23254;-74
2021/04/08 18:56:39;;;;;;;17.80;7.93;;;;;;;2.91;65.71;99351.46;239258;1199;23145;-74
2021/04/08 19:01:45;;;;;;;14.80;7.60;;;;;;;2.88;66.23;99362.47;239204;1200;23121;-74
2021/04/08 19:06:48;;;;;;;20.55;9.20;;;;;;;2.83;66.33;99357.86;239589;1198;26278;-75
2021/04/08 19:11:51;;;;;;;17.93;8.63;;;;;;;2.82;66.46;99363.38;239303;1199;23184;-74
2021/04/08 19:16:55;;;;;;;17.30;9.05;;;;;;;2.76;66.25;99367.72;239457;1200;23137;-75
2021/04/08 19:22:02;;;;;;;20.63;9.93;;;;;;;2.70;66.83;99374.70;239277;1200;23137;-75
2021/04/08 19:27:06;;;;;;;20.57;9.43;;;;;;;2.64;66.91;99377.42;239402;1199;25564;-74
2021/04/08 19:32:09;;;;;;;23.13;10.20;;;;;;;2.61;66.63;99378.67;239367;1199;23144;-73
2021/04/08 19:37:12;;;;;;;23.40;11.40;;;;;;;2.61;67.38;99380.52;239397;1198;23124;-74
2021/04/08 19:42:15;;;;;;;18.87;9.30;;;;;;;2.62;67.33;99382.94;239439;1202;23121;-74
2021/04/08 19:47:18;;;;;;;26.20;11.70;;;;;;;2.63;67.22;99376.63;239353;1200;23084;-73
2021/04/08 19:52:21;;;;;;;24.50;11.00;;;;;;;2.69;67.78;99385.52;239211;1200;23157;-74
2021/04/08 19:57:23;;;;;;;24.45;11.00;;;;;;;2.72;67.05;99387.71;239195;1202;23114;-72
2021/04/08 20:02:26;;;;;;;26.20;10.20;;;;;;;2.73;67.43;99397.27;239250;1202;23211;-73
2021/04/08 20:07:29;;;;;;;24.75;11.55;;;;;;;2.74;67.33;99390.92;239113;1200;23360;-72
2021/04/08 20:12:31;;;;;;;27.25;11.95;;;;;;;2.73;67.02;99397.27;239381;1199;23122;-72
2021/04/08 20:17:36;;;;;;;29.05;12.75;;;;;;;2.72;67.10;99390.36;239342;1199;23103;-72
2021/04/08 20:22:39;;;;;;;32.77;14.13;;;;;;;2.70;67.60;99384.46;239338;1200;23278;-72
2021/04/08 20:27:42;;;;;;;31.15;14.40;;;;;;;2.69;67.54;99388.16;239467;1199;23115;-73
2021/04/08 20:32:45;;;;;;;36.07;14.17;;;;;;;2.66;67.90;99389.41;239144;1199;23289;-72
2021/04/08 20:37:47;;;;;;;34.85;15.25;;;;;;;2.67;67.60;99391.03;239157;1197;25042;-72
2021/04/08 20:42:51;;;;;;;36.23;16.77;;;;;;;2.66;68.05;99391.22;239216;1197;26176;-72
2021/04/08 20:47:53;;;;;;;40.55;17.25;;;;;;;2.65;67.71;99394.92;239314;1201;23114;-72
2021/04/08 20:52:56;;;;;;;43.73;18.33;;;;;;;2.65;67.88;99397.56;239251;1200;23121;-72
2021/04/08 20:57:59;;;;;;;47.35;21.50;;;;;;;2.64;67.69;99396.73;239435;1199;23109;-73
2021/04/08 21:03:03;;;;;;;52.20;22.60;;;;;;;2.61;67.91;99399.03;239240;1201;23179;-74
2021/04/08 21:08:06;;;;;;;53.13;20.47;;;;;;;2.59;68.02;99406.36;239507;1200;23121;-73
2021/04/08 21:13:08;;;;;;;55.35;24.45;;;;;;;2.52;67.56;99396.67;239219;1202;23276;-73
2021/04/08 21:18:11;;;;;;;53.00;23.15;;;;;;;2.43;67.60;99410.41;239252;1200;23165;-72
2021/04/08 21:23:16;;;;;;;59.70;24.70;;;;;;;2.26;68.30;99412.81;239112;1200;23131;-72
2021/04/08 21:28:19;;;;;;;61.20;27.45;;;;;;;2.08;68.46;99419.66;239200;1200;23389;-72
2021/04/08 21:33:21;;;;;;;59.90;26.35;;;;;;;1.90;67.96;99416.98;239270;1202;23139;-73
2021/04/08 21:38:24;;;;;;;57.65;25.95;;;;;;;1.71;69.00;99427.48;239279;1199;23231;-73
2021/04/08 21:43:27;;;;;;;73.40;28.20;;;;;;;1.54;68.88;99429.84;239121;1200;23257;-72
2021/04/08 21:48:29;;;;;;;66.60;28.80;;;;;;;1.39;69.49;99439.88;239103;1199;23124;-71
2021/04/08 21:53:32;;;;;;;66.00;29.30;;;;;;;1.22;69.22;99429.80;239127;1199;23140;-72
2021/04/08 21:58:34;;;;;;;72.73;30.50;;;;;;;1.10;69.38;99436.76;239293;1202;23122;-73
2021/04/08 22:03:37;;;;;;;69.15;30.90;;;;;;;0.95;69.15;99434.38;239298;1197;23128;-73
2021/04/08 22:08:40;;;;;;;70.65;30.65;;;;;;;0.79;69.79;99447.01;239277;1200;23115;-74
2021/04/08 22:13:42;;;;;;;68.55;28.25;;;;;;;0.64;70.04;99443.80;239110;1199;23121;-71
2021/04/08 22:18:48;;;;;;;63.80;26.25;;;;;;;0.51;70.03;99445.45;239152;1200;23122;-71
2021/04/08 22:23:52;;;;;;;65.80;27.60;;;;;;;0.41;69.92;99452.18;239351;1198;23124;-71
2021/04/08 22:28:56;;;;;;;61.05;25.30;;;;;;;0.33;69.78;99458.46;239378;1200;23101;-72
2021/04/08 22:33:58;;;;;;;91.00;34.20;;;;;;;0.25;70.46;99456.03;239257;1199;23128;-72
2021/04/08 22:39:01;;;;;;;106.10;44.20;;;;;;;0.18;70.94;99455.23;239436;1199;23123;-72
2021/04/08 22:44:04;;;;;;;131.43;51.03;;;;;;;0.13;71.06;99458.48;239250;1202;23158;-73
2021/04/08 22:49:07;;;;;;;117.70;47.43;;;;;;;0.05;71.25;99459.48;239182;1202;23125;-72
2021/04/08 22:54:10;;;;;;;102.03;39.43;;;;;;;-0.11;71.18;99452.80;239116;1199;23124;-72
2021/04/08 22:59:14;;;;;;;118.00;44.30;;;;;;;-0.23;70.94;99460.47;239469;1200;23122;-74
2021/04/08 23:04:17;;;;;;;106.20;41.50;;;;;;;-0.35;71.49;99462.06;239438;1199;27317;-72
2021/04/08 23:09:20;;;;;;;101.40;37.03;;;;;;;-0.42;71.14;99450.72;239128;1199;23154;-72
2021/04/08 23:14:23;;;;;;;98.37;37.80;;;;;;;-0.47;71.46;99456.59;239386;1197;23134;-72
2021/04/08 23:19:26;;;;;;;88.13;32.77;;;;;;;-0.50;71.39;99458.79;239303;1200;23121;-72
2021/04/08 23:24:28;;;;;;;84.25;33.20;;;;;;;-0.54;72.07;99461.03;239147;1200;23131;-72
2021/04/08 23:29:31;;;;;;;94.37;36.73;;;;;;;-0.57;71.66;99461.43;239202;1200;23123;-71
2021/04/08 23:34:34;;;;;;;91.80;34.35;;;;;;;-0.62;71.57;99456.74;239321;1200;23122;-72
2021/04/08 23:39:36;;;;;;;85.83;32.13;;;;;;;-0.66;71.61;99446.82;239333;1199;23165;-72